sensor_id;sensor_type;location;lat;lon;timestamp;temperature;humidity
26541;DHT22;14206;50.202;10.948;2022-09-25T00:01:10;12.10;94.80
26541;DHT22;14206;50.202;10.948;2022-09-25T00:03:38;12.10;94.60
26541;DHT22;14206;50.202;10.948;2022-09-25T00:09:55;12.00;94.80
26541;DHT22;14206;50.202;10.948;2022-09-25T00:12:22;11.90;94.80
26541;DHT22;14206;50.202;10.948;2022-09-25T00:14:50;11.90;95.10
26541;DHT22;14206;50.202;10.948;2022-09-25T00:17:17;11.90;94.90
26541;DHT22;14206;50.202;10.948;2022-09-25T00:19:44;11.90;95.30
26541;DHT22;14206;50.202;10.948;2022-09-25T00:22:21;11.80;95.20
26541;DHT22;14206;50.202;10.948;2022-09-25T00:24:49;11.90;95.00
26541;DHT22;14206;50.202;10.948;2022-09-25T00:27:16;11.90;95.10
26541;DHT22;14206;50.202;10.948;2022-09-25T00:29:44;11.90;95.70
26541;DHT22;14206;50.202;10.948;2022-09-25T00:32:11;11.80;95.50
26541;DHT22;14206;50.202;10.948;2022-09-25T00:34:39;11.70;95.70
26541;DHT22;14206;50.202;10.948;2022-09-25T00:37:06;11.70;95.50
26541;DHT22;14206;50.202;10.948;2022-09-25T00:39:33;11.60;95.30
26541;DHT22;14206;50.202;10.948;2022-09-25T00:42:00;11.50;95.10
26541;DHT22;14206;50.202;10.948;2022-09-25T00:47:42;11.50;95.30
26541;DHT22;14206;50.202;10.948;2022-09-25T00:53:07;11.40;95.80
26541;DHT22;14206;50.202;10.948;2022-09-25T00:55:36;11.30;96.30
26541;DHT22;14206;50.202;10.948;2022-09-25T00:58:04;11.30;96.60
26541;DHT22;14206;50.202;10.948;2022-09-25T01:00:32;11.40;96.60
26541;DHT22;14206;50.202;10.948;2022-09-25T01:02:59;11.40;96.60
26541;DHT22;14206;50.202;10.948;2022-09-25T01:05:31;11.40;96.60
26541;DHT22;14206;50.202;10.948;2022-09-25T01:08:00;11.50;96.60
26541;DHT22;14206;50.202;10.948;2022-09-25T01:10:29;11.50;96.60
26541;DHT22;14206;50.202;10.948;2022-09-25T01:12:56;11.60;96.60
26541;DHT22;14206;50.202;10.948;2022-09-25T01:30:05;11.80;96.60
26541;DHT22;14206;50.202;10.948;2022-09-25T01:35:57;11.80;96.60
26541;DHT22;14206;50.202;10.948;2022-09-25T01:38:37;11.90;96.60
26541;DHT22;14206;50.202;10.948;2022-09-25T01:41:14;12.00;96.60
26541;DHT22;14206;50.202;10.948;2022-09-25T01:43:59;12.10;96.60
26541;DHT22;14206;50.202;10.948;2022-09-25T01:46:34;12.10;96.60
26541;DHT22;14206;50.202;10.948;2022-09-25T01:49:08;12.20;96.60
26541;DHT22;14206;50.202;10.948;2022-09-25T01:51:42;12.20;96.60
26541;DHT22;14206;50.202;10.948;2022-09-25T01:54:14;12.20;96.60
26541;DHT22;14206;50.202;10.948;2022-09-25T02:02:27;12.20;96.00
26541;DHT22;14206;50.202;10.948;2022-09-25T02:05:00;12.20;96.40
26541;DHT22;14206;50.202;10.948;2022-09-25T02:07:34;12.20;96.50
26541;DHT22;14206;50.202;10.948;2022-09-25T02:10:10;12.30;96.40
26541;DHT22;14206;50.202;10.948;2022-09-25T02:12:42;12.30;96.60
26541;DHT22;14206;50.202;10.948;2022-09-25T02:15:31;12.30;96.60
26541;DHT22;14206;50.202;10.948;2022-09-25T02:18:03;12.30;96.60
26541;DHT22;14206;50.202;10.948;2022-09-25T02:24:20;12.30;96.60
26541;DHT22;14206;50.202;10.948;2022-09-25T02:26:50;12.30;96.60
26541;DHT22;14206;50.202;10.948;2022-09-25T02:29:18;12.30;96.60
26541;DHT22;14206;50.202;10.948;2022-09-25T02:34:15;12.30;96.60
26541;DHT22;14206;50.202;10.948;2022-09-25T02:36:42;12.30;96.60
26541;DHT22;14206;50.202;10.948;2022-09-25T02:39:13;12.30;96.60
26541;DHT22;14206;50.202;10.948;2022-09-25T02:42:13;12.30;96.60
26541;DHT22;14206;50.202;10.948;2022-09-25T02:50:03;12.30;96.60
26541;DHT22;14206;50.202;10.948;2022-09-25T02:58:23;12.40;96.40
26541;DHT22;14206;50.202;10.948;2022-09-25T03:00:52;12.40;96.50
26541;DHT22;14206;50.202;10.948;2022-09-25T03:03:23;12.40;96.60
26541;DHT22;14206;50.202;10.948;2022-09-25T03:05:53;12.40;96.50
26541;DHT22;14206;50.202;10.948;2022-09-25T03:08:22;12.50;96.10
26541;DHT22;14206;50.202;10.948;2022-09-25T03:11:09;12.40;96.40
26541;DHT22;14206;50.202;10.948;2022-09-25T03:13:37;12.40;96.40
26541;DHT22;14206;50.202;10.948;2022-09-25T03:19:06;12.40;96.20
26541;DHT22;14206;50.202;10.948;2022-09-25T03:21:33;12.40;95.90
26541;DHT22;14206;50.202;10.948;2022-09-25T03:24:00;12.40;95.70
26541;DHT22;14206;50.202;10.948;2022-09-25T03:26:27;12.40;95.90
26541;DHT22;14206;50.202;10.948;2022-09-25T03:28:55;12.40;96.00
26541;DHT22;14206;50.202;10.948;2022-09-25T03:31:22;12.40;96.10
26541;DHT22;14206;50.202;10.948;2022-09-25T03:33:49;12.40;95.90
26541;DHT22;14206;50.202;10.948;2022-09-25T03:36:19;12.50;95.80
26541;DHT22;14206;50.202;10.948;2022-09-25T03:38:48;12.50;95.60
26541;DHT22;14206;50.202;10.948;2022-09-25T03:41:18;12.50;95.40
26541;DHT22;14206;50.202;10.948;2022-09-25T03:43:48;12.50;95.20
26541;DHT22;14206;50.202;10.948;2022-09-25T03:46:19;12.50;95.10
26541;DHT22;14206;50.202;10.948;2022-09-25T03:48:46;12.50;95.50
26541;DHT22;14206;50.202;10.948;2022-09-25T03:51:14;12.60;95.10
26541;DHT22;14206;50.202;10.948;2022-09-25T03:53:41;12.60;95.60
26541;DHT22;14206;50.202;10.948;2022-09-25T03:56:13;12.60;95.30
26541;DHT22;14206;50.202;10.948;2022-09-25T03:58:40;12.60;95.40
26541;DHT22;14206;50.202;10.948;2022-09-25T04:01:07;12.60;95.20
26541;DHT22;14206;50.202;10.948;2022-09-25T04:03:34;12.60;95.40
26541;DHT22;14206;50.202;10.948;2022-09-25T04:06:02;12.70;95.10
26541;DHT22;14206;50.202;10.948;2022-09-25T04:08:31;12.70;95.30
26541;DHT22;14206;50.202;10.948;2022-09-25T04:10:59;12.70;95.40
26541;DHT22;14206;50.202;10.948;2022-09-25T04:13:29;12.70;95.20
26541;DHT22;14206;50.202;10.948;2022-09-25T04:15:59;12.70;95.30
26541;DHT22;14206;50.202;10.948;2022-09-25T04:18:27;12.70;95.10
26541;DHT22;14206;50.202;10.948;2022-09-25T04:21:02;12.70;95.20
26541;DHT22;14206;50.202;10.948;2022-09-25T04:23:30;12.70;95.20
26541;DHT22;14206;50.202;10.948;2022-09-25T04:25:57;12.70;95.20
26541;DHT22;14206;50.202;10.948;2022-09-25T04:28:24;12.80;95.00
26541;DHT22;14206;50.202;10.948;2022-09-25T04:30:51;12.80;95.00
26541;DHT22;14206;50.202;10.948;2022-09-25T04:33:19;12.80;95.00
26541;DHT22;14206;50.202;10.948;2022-09-25T04:36:05;12.80;95.10
26541;DHT22;14206;50.202;10.948;2022-09-25T04:38:32;12.70;95.20
26541;DHT22;14206;50.202;10.948;2022-09-25T04:41:00;12.70;95.20
26541;DHT22;14206;50.202;10.948;2022-09-25T04:43:30;12.70;95.30
26541;DHT22;14206;50.202;10.948;2022-09-25T04:46:05;12.70;95.50
26541;DHT22;14206;50.202;10.948;2022-09-25T04:48:33;12.60;95.40
26541;DHT22;14206;50.202;10.948;2022-09-25T04:51:01;12.60;95.60
26541;DHT22;14206;50.202;10.948;2022-09-25T04:53:29;12.60;95.80
26541;DHT22;14206;50.202;10.948;2022-09-25T04:56:01;12.50;96.10
26541;DHT22;14206;50.202;10.948;2022-09-25T04:58:28;12.50;96.20
26541;DHT22;14206;50.202;10.948;2022-09-25T05:01:03;12.50;96.50
26541;DHT22;14206;50.202;10.948;2022-09-25T05:03:30;12.50;96.20
26541;DHT22;14206;50.202;10.948;2022-09-25T05:05:57;12.40;96.20
26541;DHT22;14206;50.202;10.948;2022-09-25T05:08:26;12.40;96.20
26541;DHT22;14206;50.202;10.948;2022-09-25T05:10:53;12.40;96.40
26541;DHT22;14206;50.202;10.948;2022-09-25T05:13:20;12.40;96.10
26541;DHT22;14206;50.202;10.948;2022-09-25T05:15:47;12.40;96.20
26541;DHT22;14206;50.202;10.948;2022-09-25T05:18:18;12.40;96.60
26541;DHT22;14206;50.202;10.948;2022-09-25T05:20:47;12.40;96.50
26541;DHT22;14206;50.202;10.948;2022-09-25T05:23:14;12.50;96.10
26541;DHT22;14206;50.202;10.948;2022-09-25T05:25:41;12.50;96.20
26541;DHT22;14206;50.202;10.948;2022-09-25T05:28:09;12.50;96.30
26541;DHT22;14206;50.202;10.948;2022-09-25T05:30:37;12.50;96.50
26541;DHT22;14206;50.202;10.948;2022-09-25T05:33:05;12.50;96.40
26541;DHT22;14206;50.202;10.948;2022-09-25T05:35:32;12.50;96.60
26541;DHT22;14206;50.202;10.948;2022-09-25T05:37:59;12.50;96.40
26541;DHT22;14206;50.202;10.948;2022-09-25T05:40:26;12.60;96.40
26541;DHT22;14206;50.202;10.948;2022-09-25T05:42:54;12.60;96.30
26541;DHT22;14206;50.202;10.948;2022-09-25T05:45:22;12.70;96.20
26541;DHT22;14206;50.202;10.948;2022-09-25T05:47:59;12.70;96.30
26541;DHT22;14206;50.202;10.948;2022-09-25T05:50:27;12.80;96.10
26541;DHT22;14206;50.202;10.948;2022-09-25T05:52:58;12.80;96.20
26541;DHT22;14206;50.202;10.948;2022-09-25T05:55:33;12.80;96.20
26541;DHT22;14206;50.202;10.948;2022-09-25T05:58:12;12.80;96.60
26541;DHT22;14206;50.202;10.948;2022-09-25T06:00:39;12.80;96.60
26541;DHT22;14206;50.202;10.948;2022-09-25T06:03:07;12.70;96.60
26541;DHT22;14206;50.202;10.948;2022-09-25T06:05:34;12.80;96.60
26541;DHT22;14206;50.202;10.948;2022-09-25T06:08:02;12.80;96.60
26541;DHT22;14206;50.202;10.948;2022-09-25T06:10:29;12.80;96.60
26541;DHT22;14206;50.202;10.948;2022-09-25T06:12:57;12.90;96.60
26541;DHT22;14206;50.202;10.948;2022-09-25T06:15:25;12.90;96.60
26541;DHT22;14206;50.202;10.948;2022-09-25T06:17:54;12.90;96.60
26541;DHT22;14206;50.202;10.948;2022-09-25T06:20:28;13.00;96.60
26541;DHT22;14206;50.202;10.948;2022-09-25T06:22:57;13.00;96.60
26541;DHT22;14206;50.202;10.948;2022-09-25T06:25:26;13.10;96.60
26541;DHT22;14206;50.202;10.948;2022-09-25T06:27:55;13.20;96.60
26541;DHT22;14206;50.202;10.948;2022-09-25T06:30:23;13.30;96.60
26541;DHT22;14206;50.202;10.948;2022-09-25T06:32:57;13.30;96.50
26541;DHT22;14206;50.202;10.948;2022-09-25T06:35:24;13.40;96.40
26541;DHT22;14206;50.202;10.948;2022-09-25T06:37:55;13.40;96.40
26541;DHT22;14206;50.202;10.948;2022-09-25T06:40:21;13.50;96.40
26541;DHT22;14206;50.202;10.948;2022-09-25T06:43:03;13.50;96.40
26541;DHT22;14206;50.202;10.948;2022-09-25T06:45:32;13.50;96.30
26541;DHT22;14206;50.202;10.948;2022-09-25T06:48:06;13.50;96.50
26541;DHT22;14206;50.202;10.948;2022-09-25T06:53:12;13.60;96.30
26541;DHT22;14206;50.202;10.948;2022-09-25T06:55:39;13.60;96.10
26541;DHT22;14206;50.202;10.948;2022-09-25T06:58:10;13.60;96.20
26541;DHT22;14206;50.202;10.948;2022-09-25T07:00:37;13.70;96.10
26541;DHT22;14206;50.202;10.948;2022-09-25T07:03:04;13.70;95.80
26541;DHT22;14206;50.202;10.948;2022-09-25T07:05:49;13.80;95.90
26541;DHT22;14206;50.202;10.948;2022-09-25T07:08:23;13.80;96.00
26541;DHT22;14206;50.202;10.948;2022-09-25T07:10:56;13.80;95.90
26541;DHT22;14206;50.202;10.948;2022-09-25T07:13:25;13.90;95.90
26541;DHT22;14206;50.202;10.948;2022-09-25T07:18:23;14.00;95.70
26541;DHT22;14206;50.202;10.948;2022-09-25T07:20:50;14.00;95.40
26541;DHT22;14206;50.202;10.948;2022-09-25T07:23:20;14.10;95.40
26541;DHT22;14206;50.202;10.948;2022-09-25T07:25:48;14.10;95.00
26541;DHT22;14206;50.202;10.948;2022-09-25T07:28:15;14.10;95.00
26541;DHT22;14206;50.202;10.948;2022-09-25T07:30:46;14.10;95.10
26541;DHT22;14206;50.202;10.948;2022-09-25T07:33:14;14.10;95.10
26541;DHT22;14206;50.202;10.948;2022-09-25T07:35:41;14.20;95.30
26541;DHT22;14206;50.202;10.948;2022-09-25T07:38:08;14.20;95.30
26541;DHT22;14206;50.202;10.948;2022-09-25T07:40:35;14.30;94.90
26541;DHT22;14206;50.202;10.948;2022-09-25T07:43:03;14.40;94.70
26541;DHT22;14206;50.202;10.948;2022-09-25T07:45:30;14.50;94.30
26541;DHT22;14206;50.202;10.948;2022-09-25T07:47:58;14.50;94.00
26541;DHT22;14206;50.202;10.948;2022-09-25T07:50:30;14.40;94.10
26541;DHT22;14206;50.202;10.948;2022-09-25T07:52:57;14.50;94.50
26541;DHT22;14206;50.202;10.948;2022-09-25T07:55:25;14.50;94.30
26541;DHT22;14206;50.202;10.948;2022-09-25T07:57:57;14.60;94.40
26541;DHT22;14206;50.202;10.948;2022-09-25T08:00:24;14.60;94.10
26541;DHT22;14206;50.202;10.948;2022-09-25T08:02:55;14.70;94.00
26541;DHT22;14206;50.202;10.948;2022-09-25T08:05:23;14.80;94.20
26541;DHT22;14206;50.202;10.948;2022-09-25T08:07:52;14.80;94.40
26541;DHT22;14206;50.202;10.948;2022-09-25T08:10:22;14.80;94.40
26541;DHT22;14206;50.202;10.948;2022-09-25T08:12:49;14.80;94.70
26541;DHT22;14206;50.202;10.948;2022-09-25T08:15:16;14.80;95.50
26541;DHT22;14206;50.202;10.948;2022-09-25T08:17:43;14.70;95.70
26541;DHT22;14206;50.202;10.948;2022-09-25T08:20:10;14.70;96.00
26541;DHT22;14206;50.202;10.948;2022-09-25T08:22:37;14.60;96.20
26541;DHT22;14206;50.202;10.948;2022-09-25T08:25:04;14.60;96.60
26541;DHT22;14206;50.202;10.948;2022-09-25T08:27:33;14.60;96.60
26541;DHT22;14206;50.202;10.948;2022-09-25T08:30:10;14.60;96.40
26541;DHT22;14206;50.202;10.948;2022-09-25T08:32:37;14.70;96.60
26541;DHT22;14206;50.202;10.948;2022-09-25T08:35:05;14.70;96.60
26541;DHT22;14206;50.202;10.948;2022-09-25T08:37:32;14.70;96.60
26541;DHT22;14206;50.202;10.948;2022-09-25T08:40:02;14.80;96.60
26541;DHT22;14206;50.202;10.948;2022-09-25T08:42:34;14.80;96.60
26541;DHT22;14206;50.202;10.948;2022-09-25T08:45:06;14.80;96.60
26541;DHT22;14206;50.202;10.948;2022-09-25T08:47:56;14.90;96.50
26541;DHT22;14206;50.202;10.948;2022-09-25T08:50:42;14.90;96.60
26541;DHT22;14206;50.202;10.948;2022-09-25T08:53:23;14.90;96.60
26541;DHT22;14206;50.202;10.948;2022-09-25T08:55:50;14.90;96.60
26541;DHT22;14206;50.202;10.948;2022-09-25T08:58:39;15.00;96.50
26541;DHT22;14206;50.202;10.948;2022-09-25T09:01:17;15.00;96.60
26541;DHT22;14206;50.202;10.948;2022-09-25T09:03:56;15.00;96.10
26541;DHT22;14206;50.202;10.948;2022-09-25T09:06:28;15.10;96.60
26541;DHT22;14206;50.202;10.948;2022-09-25T09:09:04;15.20;95.80
26541;DHT22;14206;50.202;10.948;2022-09-25T09:11:42;15.20;95.70
26541;DHT22;14206;50.202;10.948;2022-09-25T09:14:14;15.30;96.10
26541;DHT22;14206;50.202;10.948;2022-09-25T09:16:54;15.50;95.70
26541;DHT22;14206;50.202;10.948;2022-09-25T09:19:22;15.60;94.90
26541;DHT22;14206;50.202;10.948;2022-09-25T09:22:11;15.70;94.70
26541;DHT22;14206;50.202;10.948;2022-09-25T09:30:33;16.20;93.70
26541;DHT22;14206;50.202;10.948;2022-09-25T09:38:33;16.60;92.70
26541;DHT22;14206;50.202;10.948;2022-09-25T09:41:17;16.70;92.50
26541;DHT22;14206;50.202;10.948;2022-09-25T09:49:39;16.80;91.10
26541;DHT22;14206;50.202;10.948;2022-09-25T09:52:27;16.70;90.60
26541;DHT22;14206;50.202;10.948;2022-09-25T09:57:29;16.60;92.00
26541;DHT22;14206;50.202;10.948;2022-09-25T10:00:03;16.60;91.70
26541;DHT22;14206;50.202;10.948;2022-09-25T10:03:04;16.60;91.40
26541;DHT22;14206;50.202;10.948;2022-09-25T10:05:40;16.60;91.30
26541;DHT22;14206;50.202;10.948;2022-09-25T10:08:09;16.50;90.70
26541;DHT22;14206;50.202;10.948;2022-09-25T10:10:38;16.50;91.50
26541;DHT22;14206;50.202;10.948;2022-09-25T10:13:18;16.30;91.60
26541;DHT22;14206;50.202;10.948;2022-09-25T10:15:49;15.90;92.90
26541;DHT22;14206;50.202;10.948;2022-09-25T10:18:20;15.60;94.50
26541;DHT22;14206;50.202;10.948;2022-09-25T10:20:56;15.50;95.00
26541;DHT22;14206;50.202;10.948;2022-09-25T10:23:56;15.30;95.00
26541;DHT22;14206;50.202;10.948;2022-09-25T10:26:36;15.20;95.90
26541;DHT22;14206;50.202;10.948;2022-09-25T10:31:45;15.00;96.10
26541;DHT22;14206;50.202;10.948;2022-09-25T10:36:50;14.70;96.60
26541;DHT22;14206;50.202;10.948;2022-09-25T10:39:29;14.60;96.60
26541;DHT22;14206;50.202;10.948;2022-09-25T10:45:26;14.30;96.60
26541;DHT22;14206;50.202;10.948;2022-09-25T10:47:54;14.30;96.60
26541;DHT22;14206;50.202;10.948;2022-09-25T10:50:41;14.30;96.60
26541;DHT22;14206;50.202;10.948;2022-09-25T10:53:26;14.30;96.60
26541;DHT22;14206;50.202;10.948;2022-09-25T10:56:05;14.40;96.60
26541;DHT22;14206;50.202;10.948;2022-09-25T10:58:52;14.40;96.60
26541;DHT22;14206;50.202;10.948;2022-09-25T11:01:29;14.40;96.60
26541;DHT22;14206;50.202;10.948;2022-09-25T11:03:58;14.40;96.60
26541;DHT22;14206;50.202;10.948;2022-09-25T11:06:28;14.30;96.60
26541;DHT22;14206;50.202;10.948;2022-09-25T11:09:11;14.30;96.60
26541;DHT22;14206;50.202;10.948;2022-09-25T11:11:39;14.20;96.60
26541;DHT22;14206;50.202;10.948;2022-09-25T11:14:16;14.20;96.60
26541;DHT22;14206;50.202;10.948;2022-09-25T11:16:54;14.20;96.60
26541;DHT22;14206;50.202;10.948;2022-09-25T11:19:29;14.10;96.60
26541;DHT22;14206;50.202;10.948;2022-09-25T11:22:10;14.10;96.60
26541;DHT22;14206;50.202;10.948;2022-09-25T11:27:33;14.00;96.60
26541;DHT22;14206;50.202;10.948;2022-09-25T11:30:18;14.00;96.60
26541;DHT22;14206;50.202;10.948;2022-09-25T11:36:05;14.20;96.60
26541;DHT22;14206;50.202;10.948;2022-09-25T11:38:46;14.30;96.60
26541;DHT22;14206;50.202;10.948;2022-09-25T11:41:58;14.40;96.60
26541;DHT22;14206;50.202;10.948;2022-09-25T11:44:54;14.50;96.60
26541;DHT22;14206;50.202;10.948;2022-09-25T11:49:56;15.00;96.60
26541;DHT22;14206;50.202;10.948;2022-09-25T11:52:45;15.10;96.60
26541;DHT22;14206;50.202;10.948;2022-09-25T11:58:22;15.50;96.60
26541;DHT22;14206;50.202;10.948;2022-09-25T12:01:10;15.80;96.60
26541;DHT22;14206;50.202;10.948;2022-09-25T12:06:21;16.50;95.00
26541;DHT22;14206;50.202;10.948;2022-09-25T12:17:15;17.60;87.70
26541;DHT22;14206;50.202;10.948;2022-09-25T12:20:08;17.90;88.90
26541;DHT22;14206;50.202;10.948;2022-09-25T12:25:50;18.40;85.70
26541;DHT22;14206;50.202;10.948;2022-09-25T12:36:47;18.80;82.20
26541;DHT22;14206;50.202;10.948;2022-09-25T12:45:28;19.40;81.00
26541;DHT22;14206;50.202;10.948;2022-09-25T12:48:18;19.30;81.50
26541;DHT22;14206;50.202;10.948;2022-09-25T12:50:54;19.20;80.00
26541;DHT22;14206;50.202;10.948;2022-09-25T12:53:38;19.10;80.50
26541;DHT22;14206;50.202;10.948;2022-09-25T12:56:10;19.10;82.50
26541;DHT22;14206;50.202;10.948;2022-09-25T12:58:55;19.10;81.30
26541;DHT22;14206;50.202;10.948;2022-09-25T13:07:03;18.70;81.70
26541;DHT22;14206;50.202;10.948;2022-09-25T13:09:46;18.60;81.60
26541;DHT22;14206;50.202;10.948;2022-09-25T13:14:55;18.40;82.70
26541;DHT22;14206;50.202;10.948;2022-09-25T13:17:24;18.50;84.00
26541;DHT22;14206;50.202;10.948;2022-09-25T13:19:51;18.50;82.10
26541;DHT22;14206;50.202;10.948;2022-09-25T13:22:22;18.40;83.30
26541;DHT22;14206;50.202;10.948;2022-09-25T13:25:02;18.20;82.70
26541;DHT22;14206;50.202;10.948;2022-09-25T13:27:42;18.10;82.70
26541;DHT22;14206;50.202;10.948;2022-09-25T13:30:25;18.00;83.10
26541;DHT22;14206;50.202;10.948;2022-09-25T13:32:57;18.00;83.60
26541;DHT22;14206;50.202;10.948;2022-09-25T13:35:30;18.00;82.60
26541;DHT22;14206;50.202;10.948;2022-09-25T13:38:14;18.00;84.50
26541;DHT22;14206;50.202;10.948;2022-09-25T13:41:09;18.20;85.40
26541;DHT22;14206;50.202;10.948;2022-09-25T13:43:36;18.40;85.60
26541;DHT22;14206;50.202;10.948;2022-09-25T13:48:50;18.60;82.10
26541;DHT22;14206;50.202;10.948;2022-09-25T13:53:56;18.90;81.20
26541;DHT22;14206;50.202;10.948;2022-09-25T13:56:28;19.10;82.60
26541;DHT22;14206;50.202;10.948;2022-09-25T14:01:48;19.00;80.80
26541;DHT22;14206;50.202;10.948;2022-09-25T14:04:18;18.90;81.10
26541;DHT22;14206;50.202;10.948;2022-09-25T14:06:48;18.70;81.70
26541;DHT22;14206;50.202;10.948;2022-09-25T14:09:26;18.60;82.80
26541;DHT22;14206;50.202;10.948;2022-09-25T14:12:07;18.50;83.30
26541;DHT22;14206;50.202;10.948;2022-09-25T14:14:42;18.30;83.10
26541;DHT22;14206;50.202;10.948;2022-09-25T14:17:18;18.00;83.00
26541;DHT22;14206;50.202;10.948;2022-09-25T14:19:48;17.80;84.50
26541;DHT22;14206;50.202;10.948;2022-09-25T14:25:23;17.50;85.50
26541;DHT22;14206;50.202;10.948;2022-09-25T14:27:50;17.30;87.80
26541;DHT22;14206;50.202;10.948;2022-09-25T14:30:19;17.40;89.00
26541;DHT22;14206;50.202;10.948;2022-09-25T14:35:40;17.70;87.50
26541;DHT22;14206;50.202;10.948;2022-09-25T14:46:29;17.60;86.00
26541;DHT22;14206;50.202;10.948;2022-09-25T14:51:43;17.40;84.80
26541;DHT22;14206;50.202;10.948;2022-09-25T14:54:17;17.30;85.40
26541;DHT22;14206;50.202;10.948;2022-09-25T14:56:47;17.40;85.00
26541;DHT22;14206;50.202;10.948;2022-09-25T14:59:19;17.40;85.40
26541;DHT22;14206;50.202;10.948;2022-09-25T15:01:51;17.40;84.50
26541;DHT22;14206;50.202;10.948;2022-09-25T15:04:27;17.40;84.50
26541;DHT22;14206;50.202;10.948;2022-09-25T15:07:21;17.30;83.40
26541;DHT22;14206;50.202;10.948;2022-09-25T15:09:50;17.00;83.70
26541;DHT22;14206;50.202;10.948;2022-09-25T15:12:25;16.80;84.70
26541;DHT22;14206;50.202;10.948;2022-09-25T15:15:12;16.80;85.70
26541;DHT22;14206;50.202;10.948;2022-09-25T15:17:46;16.70;85.90
26541;DHT22;14206;50.202;10.948;2022-09-25T15:20:18;16.70;87.00
26541;DHT22;14206;50.202;10.948;2022-09-25T15:25:42;16.70;86.30
26541;DHT22;14206;50.202;10.948;2022-09-25T15:28:15;16.70;86.70
26541;DHT22;14206;50.202;10.948;2022-09-25T15:30:44;16.70;87.10
26541;DHT22;14206;50.202;10.948;2022-09-25T15:33:21;16.70;86.70
26541;DHT22;14206;50.202;10.948;2022-09-25T15:35:56;16.70;86.50
26541;DHT22;14206;50.202;10.948;2022-09-25T15:38:34;16.60;86.60
26541;DHT22;14206;50.202;10.948;2022-09-25T15:41:02;16.60;86.60
26541;DHT22;14206;50.202;10.948;2022-09-25T15:43:31;16.50;86.90
26541;DHT22;14206;50.202;10.948;2022-09-25T15:48:38;16.40;87.70
26541;DHT22;14206;50.202;10.948;2022-09-25T15:51:19;16.40;88.80
26541;DHT22;14206;50.202;10.948;2022-09-25T15:53:58;16.30;89.10
26541;DHT22;14206;50.202;10.948;2022-09-25T15:56:37;16.30;89.60
26541;DHT22;14206;50.202;10.948;2022-09-25T16:02:35;16.30;91.40
26541;DHT22;14206;50.202;10.948;2022-09-25T16:05:29;16.30;92.00
26541;DHT22;14206;50.202;10.948;2022-09-25T16:08:15;16.30;92.00
26541;DHT22;14206;50.202;10.948;2022-09-25T16:10:43;16.30;91.80
26541;DHT22;14206;50.202;10.948;2022-09-25T16:13:20;16.30;92.00
26541;DHT22;14206;50.202;10.948;2022-09-25T16:15:49;16.30;91.90
26541;DHT22;14206;50.202;10.948;2022-09-25T16:18:30;16.20;92.30
26541;DHT22;14206;50.202;10.948;2022-09-25T16:24:00;16.00;93.30
26541;DHT22;14206;50.202;10.948;2022-09-25T16:26:41;16.00;93.90
26541;DHT22;14206;50.202;10.948;2022-09-25T16:31:40;15.90;93.20
26541;DHT22;14206;50.202;10.948;2022-09-25T16:34:16;15.80;92.50
26541;DHT22;14206;50.202;10.948;2022-09-25T16:36:44;15.70;92.50
26541;DHT22;14206;50.202;10.948;2022-09-25T16:39:38;15.60;93.20
26541;DHT22;14206;50.202;10.948;2022-09-25T16:45:07;15.30;94.50
26541;DHT22;14206;50.202;10.948;2022-09-25T16:47:38;15.20;95.30
26541;DHT22;14206;50.202;10.948;2022-09-25T16:50:11;15.10;95.60
26541;DHT22;14206;50.202;10.948;2022-09-25T16:52:39;15.10;95.80
26541;DHT22;14206;50.202;10.948;2022-09-25T16:55:21;15.10;95.50
26541;DHT22;14206;50.202;10.948;2022-09-25T16:57:50;15.10;95.80
26541;DHT22;14206;50.202;10.948;2022-09-25T17:00:23;15.00;96.10
26541;DHT22;14206;50.202;10.948;2022-09-25T17:02:51;15.00;96.30
26541;DHT22;14206;50.202;10.948;2022-09-25T17:05:27;15.00;96.50
26541;DHT22;14206;50.202;10.948;2022-09-25T17:07:58;15.00;96.60
26541;DHT22;14206;50.202;10.948;2022-09-25T17:10:28;15.00;96.60
26541;DHT22;14206;50.202;10.948;2022-09-25T17:13:00;15.00;96.60
26541;DHT22;14206;50.202;10.948;2022-09-25T17:15:32;15.10;96.60
26541;DHT22;14206;50.202;10.948;2022-09-25T17:18:01;15.10;96.60
26541;DHT22;14206;50.202;10.948;2022-09-25T17:20:29;15.10;96.60
26541;DHT22;14206;50.202;10.948;2022-09-25T17:22:59;15.10;96.60
26541;DHT22;14206;50.202;10.948;2022-09-25T17:28:07;15.00;96.00
26541;DHT22;14206;50.202;10.948;2022-09-25T17:30:35;15.00;96.20
26541;DHT22;14206;50.202;10.948;2022-09-25T17:33:02;15.00;96.50
26541;DHT22;14206;50.202;10.948;2022-09-25T17:35:40;15.00;96.60
26541;DHT22;14206;50.202;10.948;2022-09-25T17:38:08;14.90;96.60
26541;DHT22;14206;50.202;10.948;2022-09-25T17:40:44;14.90;96.60
26541;DHT22;14206;50.202;10.948;2022-09-25T17:43:13;14.80;96.60
26541;DHT22;14206;50.202;10.948;2022-09-25T17:45:49;14.80;96.60
26541;DHT22;14206;50.202;10.948;2022-09-25T17:48:17;14.90;96.60
26541;DHT22;14206;50.202;10.948;2022-09-25T17:50:59;14.80;96.60
26541;DHT22;14206;50.202;10.948;2022-09-25T17:53:34;14.80;96.60
26541;DHT22;14206;50.202;10.948;2022-09-25T17:56:01;14.80;96.60
26541;DHT22;14206;50.202;10.948;2022-09-25T17:58:29;14.80;96.60
26541;DHT22;14206;50.202;10.948;2022-09-25T18:00:58;14.80;96.60
26541;DHT22;14206;50.202;10.948;2022-09-25T18:03:25;14.70;96.60
26541;DHT22;14206;50.202;10.948;2022-09-25T18:05:53;14.60;96.60
26541;DHT22;14206;50.202;10.948;2022-09-25T18:08:20;14.60;96.60
26541;DHT22;14206;50.202;10.948;2022-09-25T18:10:52;14.50;96.60
26541;DHT22;14206;50.202;10.948;2022-09-25T18:13:19;14.50;96.60
26541;DHT22;14206;50.202;10.948;2022-09-25T18:15:52;14.40;96.60
26541;DHT22;14206;50.202;10.948;2022-09-25T18:18:20;14.40;96.60
26541;DHT22;14206;50.202;10.948;2022-09-25T18:20:47;14.40;96.60
26541;DHT22;14206;50.202;10.948;2022-09-25T18:23:35;14.40;96.60
26541;DHT22;14206;50.202;10.948;2022-09-25T18:26:06;14.30;96.60
26541;DHT22;14206;50.202;10.948;2022-09-25T18:28:33;14.30;96.60
26541;DHT22;14206;50.202;10.948;2022-09-25T18:31:00;14.30;96.60
26541;DHT22;14206;50.202;10.948;2022-09-25T18:33:27;14.30;96.60
26541;DHT22;14206;50.202;10.948;2022-09-25T18:35:54;14.30;96.60
26541;DHT22;14206;50.202;10.948;2022-09-25T18:38:21;14.20;96.60
26541;DHT22;14206;50.202;10.948;2022-09-25T18:40:48;14.20;96.60
26541;DHT22;14206;50.202;10.948;2022-09-25T18:43:18;14.20;96.60
26541;DHT22;14206;50.202;10.948;2022-09-25T18:45:48;14.20;96.60
26541;DHT22;14206;50.202;10.948;2022-09-25T18:48:18;14.10;96.60